createdAt,value
2018-08-18T00:00:29.882Z,0.00
2018-08-18T00:01:29.861Z,0.00
2018-08-18T00:02:29.846Z,0.00
2018-08-18T00:03:29.830Z,0.00
2018-08-18T00:04:29.815Z,0.00
2018-08-18T00:05:29.796Z,0.00
2018-08-18T00:06:29.783Z,0.00
2018-08-18T00:07:29.765Z,0.00
2018-08-18T00:08:29.745Z,0.00
2018-08-18T00:09:29.731Z,0.00
2018-08-18T00:10:29.723Z,0.00
2018-08-18T00:11:29.697Z,0.00
2018-08-18T00:12:29.681Z,0.00
2018-08-18T00:13:29.666Z,0.00
2018-08-18T00:14:29.646Z,0.00
2018-08-18T00:15:29.633Z,0.00
2018-08-18T00:16:29.622Z,0.00
2018-08-18T00:17:29.602Z,0.00
2018-08-18T00:18:29.580Z,0.00
2018-08-18T00:19:29.567Z,0.00
2018-08-18T00:20:29.549Z,0.00
2018-08-18T00:21:29.533Z,0.00
2018-08-18T00:22:29.512Z,0.00
2018-08-18T00:23:29.500Z,0.00
2018-08-18T00:24:29.482Z,0.00
2018-08-18T00:25:29.463Z,0.00
2018-08-18T00:26:29.448Z,0.00
2018-08-18T00:27:29.439Z,0.00
2018-08-18T00:28:29.415Z,0.00
2018-08-18T00:29:29.396Z,0.00
2018-08-18T00:30:29.382Z,0.00
2018-08-18T00:31:29.363Z,0.00
2018-08-18T00:32:29.348Z,0.00
2018-08-18T00:33:29.330Z,0.00
2018-08-18T00:34:29.313Z,0.00
2018-08-18T00:35:29.301Z,0.00
2018-08-18T00:36:29.278Z,0.00
2018-08-18T00:37:29.265Z,0.00
2018-08-18T00:38:29.252Z,0.00
2018-08-18T00:39:29.229Z,0.00
2018-08-18T00:40:29.211Z,0.00
2018-08-18T00:41:29.204Z,0.00
2018-08-18T00:42:29.190Z,0.00
2018-08-18T00:43:29.160Z,0.00
2018-08-18T00:44:29.145Z,0.00
2018-08-18T00:45:29.129Z,0.00
2018-08-18T00:46:29.114Z,0.00
2018-08-18T00:47:29.098Z,0.00
2018-08-18T00:48:29.087Z,0.00
2018-08-18T00:49:29.062Z,0.00
2018-08-18T00:50:29.050Z,0.00
2018-08-18T00:51:29.027Z,0.00
2018-08-18T00:52:29.012Z,0.00
2018-08-18T00:53:28.993Z,0.00
2018-08-18T00:54:28.976Z,0.00
2018-08-18T00:55:28.960Z,0.00
2018-08-18T00:56:28.953Z,0.00
2018-08-18T00:57:28.926Z,0.00
2018-08-18T00:58:28.909Z,0.00
2018-08-18T00:59:28.892Z,0.00
2018-08-18T01:00:28.879Z,0.00
2018-08-18T01:01:28.858Z,0.00
2018-08-18T01:02:28.841Z,0.00
2018-08-18T01:03:28.831Z,0.00
2018-08-18T01:04:28.808Z,0.00
2018-08-18T01:05:28.792Z,0.00
2018-08-18T01:06:28.774Z,0.00
2018-08-18T01:07:28.759Z,0.00
2018-08-18T01:08:28.741Z,0.00
2018-08-18T01:09:28.724Z,0.00
2018-08-18T01:10:28.705Z,0.00
2018-08-18T01:11:28.737Z,0.00
2018-08-18T01:12:28.821Z,0.00
2018-08-18T01:13:28.655Z,0.00
2018-08-18T01:14:28.771Z,0.00
2018-08-18T01:15:28.624Z,0.00
2018-08-18T01:16:28.607Z,0.00
2018-08-18T01:17:28.585Z,0.00
2018-08-18T01:18:28.569Z,0.00
2018-08-18T01:19:28.553Z,0.00
2018-08-18T01:20:28.540Z,0.00
2018-08-18T01:21:28.588Z,0.00
2018-08-18T01:22:28.506Z,0.00
2018-08-18T01:23:28.485Z,0.00
2018-08-18T01:24:28.469Z,0.00
2018-08-18T01:25:28.451Z,0.00
2018-08-18T01:26:28.434Z,0.00
2018-08-18T01:27:28.416Z,0.00
2018-08-18T01:28:28.408Z,0.00
2018-08-18T01:29:28.385Z,0.00
2018-08-18T01:30:28.367Z,0.00
2018-08-18T01:31:28.349Z,0.00
2018-08-18T01:32:28.332Z,0.00
2018-08-18T01:33:28.318Z,0.00
2018-08-18T01:34:28.309Z,0.00
2018-08-18T01:35:28.278Z,0.00
2018-08-18T01:36:28.267Z,0.00
2018-08-18T01:37:28.250Z,0.00
2018-08-18T01:38:28.230Z,0.00
2018-08-18T01:39:28.212Z,0.00
2018-08-18T01:40:28.195Z,0.00
2018-08-18T01:41:28.179Z,0.00
2018-08-18T01:42:28.160Z,0.00
2018-08-18T01:43:28.144Z,0.00
2018-08-18T01:44:28.131Z,0.00
2018-08-18T01:45:28.110Z,0.00
2018-08-18T01:46:28.091Z,0.00
2018-08-18T01:47:28.073Z,0.00
2018-08-18T01:48:28.059Z,0.00
2018-08-18T01:49:28.040Z,0.00
2018-08-18T01:50:28.024Z,0.00
2018-08-18T01:51:28.011Z,0.00
2018-08-18T01:52:27.990Z,0.00
2018-08-18T01:53:27.982Z,0.00
2018-08-18T01:54:27.957Z,0.00
2018-08-18T01:55:27.939Z,0.00
2018-08-18T01:56:27.922Z,0.00
2018-08-18T01:57:27.904Z,0.00
2018-08-18T01:58:27.889Z,0.00
2018-08-18T01:59:27.870Z,0.00
2018-08-18T02:00:27.854Z,0.00
2018-08-18T02:01:27.835Z,0.00
2018-08-18T02:02:27.817Z,0.00
2018-08-18T02:03:27.802Z,0.00
2018-08-18T02:04:27.788Z,0.00
2018-08-18T02:05:27.766Z,0.00
2018-08-18T02:06:27.749Z,0.00
2018-08-18T02:07:27.733Z,0.00
2018-08-18T02:08:27.715Z,0.00
2018-08-18T02:09:27.699Z,0.00
2018-08-18T02:10:27.682Z,0.00
2018-08-18T02:11:27.669Z,0.00
2018-08-18T02:12:27.646Z,0.00
2018-08-18T02:13:27.629Z,0.00
2018-08-18T02:14:27.613Z,0.00
2018-08-18T02:15:27.595Z,0.00
2018-08-18T02:16:27.578Z,0.00
2018-08-18T02:17:27.560Z,0.00
2018-08-18T02:18:27.552Z,0.00
2018-08-18T02:19:27.527Z,0.00
2018-08-18T02:20:27.512Z,0.00
2018-08-18T02:21:27.492Z,0.00
2018-08-18T02:22:27.479Z,0.00
2018-08-18T02:23:27.465Z,0.00
2018-08-18T02:24:27.444Z,0.00
2018-08-18T02:25:27.427Z,0.00
2018-08-18T02:26:27.405Z,0.00
2018-08-18T02:27:27.391Z,0.00
2018-08-18T02:28:27.373Z,0.00
2018-08-18T02:29:27.354Z,0.00
2018-08-18T02:30:27.338Z,0.00
2018-08-18T02:31:27.319Z,0.00
2018-08-18T02:32:27.304Z,0.00
2018-08-18T02:33:27.283Z,0.00
2018-08-18T02:34:27.270Z,0.00
2018-08-18T02:35:27.248Z,0.00
2018-08-18T02:36:27.231Z,0.00
2018-08-18T02:37:27.214Z,0.00
2018-08-18T02:38:27.197Z,0.00
2018-08-18T02:39:27.181Z,0.00
2018-08-18T02:40:27.170Z,0.00
2018-08-18T02:41:27.150Z,0.00
2018-08-18T02:42:27.136Z,0.00
2018-08-18T02:43:27.113Z,0.00
2018-08-18T02:44:27.094Z,0.00
2018-08-18T02:45:27.077Z,0.00
2018-08-18T02:46:27.058Z,0.00
2018-08-18T02:47:27.042Z,0.00
2018-08-18T02:48:27.029Z,0.00
2018-08-18T02:49:27.008Z,0.00
2018-08-18T02:50:26.990Z,0.00
2018-08-18T02:51:26.974Z,0.00
2018-08-18T02:52:26.955Z,0.00
2018-08-18T02:53:26.937Z,0.00
2018-08-18T02:54:26.925Z,0.00
2018-08-18T02:55:26.905Z,0.00
2018-08-18T02:56:26.885Z,0.00
2018-08-18T02:57:26.868Z,0.00
2018-08-18T02:58:26.850Z,0.00
2018-08-18T02:59:26.838Z,0.00
2018-08-18T03:00:26.819Z,0.00
2018-08-18T03:01:26.800Z,0.00
2018-08-18T03:02:26.783Z,0.00
2018-08-18T03:03:26.764Z,0.00
2018-08-18T03:04:26.757Z,0.00
2018-08-18T03:05:26.738Z,0.00
2018-08-18T03:06:26.715Z,0.00
2018-08-18T03:07:26.695Z,0.00
2018-08-18T03:08:26.680Z,0.00
2018-08-18T03:09:26.662Z,0.00
2018-08-18T03:10:26.651Z,0.00
2018-08-18T03:11:26.628Z,0.00
2018-08-18T03:12:26.609Z,0.00
2018-08-18T03:13:26.592Z,0.00
2018-08-18T03:14:26.577Z,0.00
2018-08-18T03:15:26.557Z,0.00
2018-08-18T03:16:26.539Z,0.00
2018-08-18T03:17:26.523Z,0.00
2018-08-18T03:18:26.506Z,0.00
2018-08-18T03:19:26.491Z,0.00
2018-08-18T03:20:26.475Z,0.00
2018-08-18T03:21:26.452Z,0.00
2018-08-18T03:22:26.436Z,0.00
2018-08-18T03:23:26.417Z,0.00
2018-08-18T03:24:26.401Z,0.00
2018-08-18T03:25:26.381Z,0.00
2018-08-18T03:26:26.365Z,0.00
2018-08-18T03:27:26.349Z,0.00
2018-08-18T03:28:26.333Z,0.00
2018-08-18T03:29:26.316Z,0.00
2018-08-18T03:30:26.293Z,0.00
2018-08-18T03:31:26.276Z,0.00
2018-08-18T03:32:26.260Z,0.00
2018-08-18T03:33:26.240Z,0.00
2018-08-18T03:34:26.224Z,0.00
2018-08-18T03:35:26.209Z,0.00
2018-08-18T03:36:26.199Z,0.00
2018-08-18T03:37:26.173Z,0.00
2018-08-18T03:38:26.156Z,0.00
2018-08-18T03:39:26.139Z,0.00
2018-08-18T03:40:26.121Z,0.00
2018-08-18T03:41:26.110Z,0.00
2018-08-18T03:42:26.084Z,0.00
2018-08-18T03:43:26.069Z,0.00
2018-08-18T03:44:26.051Z,0.00
2018-08-18T03:45:26.031Z,0.00
2018-08-18T03:46:26.015Z,0.00
2018-08-18T03:47:25.999Z,0.00
2018-08-18T03:48:25.980Z,0.00
2018-08-18T03:49:25.963Z,0.00
2018-08-18T03:50:25.944Z,0.00
2018-08-18T03:51:25.927Z,0.00
2018-08-18T03:52:25.938Z,0.00
2018-08-18T03:53:25.892Z,0.00
2018-08-18T03:54:25.873Z,0.00
2018-08-18T03:55:25.860Z,4.00
2018-08-18T03:56:25.841Z,0.00
2018-08-18T03:57:25.820Z,0.00
2018-08-18T03:58:25.803Z,0.00
2018-08-18T03:59:25.786Z,4.00
2018-08-18T04:00:25.767Z,0.00
2018-08-18T04:01:25.752Z,0.00
2018-08-18T04:02:25.743Z,4.00
2018-08-18T04:03:25.715Z,0.00
2018-08-18T04:04:25.698Z,4.00
2018-08-18T04:05:25.679Z,4.00
2018-08-18T04:06:25.663Z,4.00
2018-08-18T04:07:25.645Z,4.00
2018-08-18T04:08:25.628Z,4.00
2018-08-18T04:09:25.710Z,4.00
2018-08-18T04:10:25.596Z,8.00
2018-08-18T04:11:25.579Z,8.00
2018-08-18T04:12:25.557Z,8.00
2018-08-18T04:13:25.543Z,8.00
2018-08-18T04:14:25.566Z,12.00
2018-08-18T04:15:25.505Z,12.00
2018-08-18T04:16:25.485Z,12.00
2018-08-18T04:17:25.469Z,12.00
2018-08-18T04:18:25.456Z,12.00
2018-08-18T04:19:25.502Z,16.00
2018-08-18T04:20:25.419Z,16.00
2018-08-18T04:21:25.398Z,16.00
2018-08-18T04:22:25.381Z,20.00
2018-08-18T04:23:25.364Z,20.00
2018-08-18T04:24:25.348Z,24.00
2018-08-18T04:25:25.458Z,20.00
2018-08-18T04:26:25.315Z,24.00
2018-08-18T04:27:25.297Z,28.00
2018-08-18T04:28:25.276Z,28.00
2018-08-18T04:29:25.257Z,28.00
2018-08-18T04:30:25.244Z,32.00
2018-08-18T04:31:25.222Z,32.00
2018-08-18T04:32:25.206Z,36.00
2018-08-18T04:33:25.190Z,40.00
2018-08-18T04:34:25.190Z,44.00
2018-08-18T04:35:25.209Z,44.00
2018-08-18T04:36:25.133Z,44.00
2018-08-18T04:37:25.119Z,48.00
2018-08-18T04:38:25.096Z,52.00
2018-08-18T04:39:25.080Z,52.00
2018-08-18T04:40:25.064Z,56.00
2018-08-18T04:41:25.044Z,56.00
2018-08-18T04:42:25.031Z,60.00
2018-08-18T04:43:25.010Z,64.00
2018-08-18T04:44:25.012Z,68.00
2018-08-18T04:45:24.989Z,68.00
2018-08-18T04:46:24.957Z,68.00
2018-08-18T04:47:24.938Z,72.00
2018-08-18T04:48:24.919Z,76.00
2018-08-18T04:49:24.910Z,76.00
2018-08-18T04:50:24.909Z,80.00
2018-08-18T04:51:24.868Z,84.00
2018-08-18T04:52:24.853Z,84.00
2018-08-18T04:53:24.831Z,88.00
2018-08-18T04:54:24.818Z,88.00
2018-08-18T04:55:24.796Z,92.00
2018-08-18T04:56:24.779Z,92.00
2018-08-18T04:57:24.769Z,92.00
2018-08-18T04:58:24.745Z,96.00
2018-08-18T04:59:24.836Z,96.00
2018-08-18T05:00:24.709Z,96.00
2018-08-18T05:01:24.688Z,104.00
2018-08-18T05:02:24.675Z,104.00
2018-08-18T05:03:24.688Z,104.00
2018-08-18T05:04:24.638Z,104.00
2018-08-18T05:05:24.619Z,108.00
2018-08-18T05:06:24.602Z,112.00
2018-08-18T05:07:24.584Z,112.00
2018-08-18T05:08:24.569Z,112.00
2018-08-18T05:09:24.547Z,116.00
2018-08-18T05:10:24.532Z,116.00
2018-08-18T05:11:24.512Z,120.00
2018-08-18T05:12:24.499Z,120.00
2018-08-18T05:13:24.480Z,120.00
2018-08-18T05:14:24.460Z,124.00
2018-08-18T05:15:24.443Z,120.00
2018-08-18T05:16:24.424Z,116.00
2018-08-18T05:17:24.406Z,116.00
2018-08-18T05:18:24.392Z,116.00
2018-08-18T05:19:24.504Z,116.00
2018-08-18T05:20:24.357Z,120.00
2018-08-18T05:21:24.347Z,124.00
2018-08-18T05:22:24.319Z,124.00
2018-08-18T05:23:24.303Z,128.00
2018-08-18T05:24:24.292Z,132.00
2018-08-18T05:25:24.272Z,140.00
2018-08-18T05:26:24.248Z,144.00
2018-08-18T05:27:24.231Z,148.00
2018-08-18T05:28:24.213Z,152.00
2018-08-18T05:29:24.195Z,156.00
2018-08-18T05:30:24.177Z,152.00
2018-08-18T05:31:24.161Z,156.00
2018-08-18T05:32:24.147Z,164.00
2018-08-18T05:33:24.126Z,164.00
2018-08-18T05:34:24.108Z,164.00
2018-08-18T05:35:24.096Z,168.00
2018-08-18T05:36:24.115Z,172.00
2018-08-18T05:37:24.056Z,176.00
2018-08-18T05:38:24.037Z,172.00
2018-08-18T05:39:24.030Z,176.00
2018-08-18T05:40:24.005Z,180.00
2018-08-18T05:41:23.991Z,180.00
2018-08-18T05:42:23.967Z,176.00
2018-08-18T05:43:23.951Z,180.00
2018-08-18T05:44:23.931Z,180.00
2018-08-18T05:45:23.918Z,180.00
2018-08-18T05:46:23.900Z,184.00
2018-08-18T05:47:23.914Z,188.00
2018-08-18T05:48:23.861Z,188.00
2018-08-18T05:49:23.843Z,192.00
2018-08-18T05:50:23.826Z,200.00
2018-08-18T05:51:23.818Z,200.00
2018-08-18T05:52:23.792Z,208.00
2018-08-18T05:53:23.775Z,208.00
2018-08-18T05:54:23.755Z,212.00
2018-08-18T05:55:23.738Z,212.00
2018-08-18T05:56:23.722Z,216.00
2018-08-18T05:57:23.704Z,216.00
2018-08-18T05:58:23.689Z,220.00
2018-08-18T05:59:23.679Z,224.00
2018-08-18T06:00:23.653Z,224.00
2018-08-18T06:01:23.636Z,228.00
2018-08-18T06:02:23.618Z,228.00
2018-08-18T06:03:23.600Z,228.00
2018-08-18T06:04:23.584Z,232.00
2018-08-18T06:05:23.567Z,232.00
2018-08-18T06:06:23.548Z,232.00
2018-08-18T06:07:23.530Z,236.00
2018-08-18T06:08:23.515Z,236.00
2018-08-18T06:09:23.493Z,240.00
2018-08-18T06:10:23.478Z,248.00
2018-08-18T06:11:23.463Z,248.00
2018-08-18T06:12:23.444Z,252.00
2018-08-18T06:13:23.425Z,256.00
2018-08-18T06:14:23.407Z,256.00
2018-08-18T06:15:23.392Z,256.00
2018-08-18T06:16:23.374Z,260.00
2018-08-18T06:17:23.356Z,260.00
2018-08-18T06:18:23.339Z,264.00
2018-08-18T06:19:23.328Z,268.00
2018-08-18T06:20:23.307Z,272.00
2018-08-18T06:21:23.294Z,276.00
2018-08-18T06:22:23.269Z,276.00
2018-08-18T06:23:23.254Z,280.00
2018-08-18T06:24:23.282Z,284.00
2018-08-18T06:25:23.223Z,288.00
2018-08-18T06:26:23.202Z,288.00
2018-08-18T06:27:23.184Z,292.00
2018-08-18T06:28:23.169Z,300.00
2018-08-18T06:29:23.149Z,296.00
2018-08-18T06:30:23.135Z,304.00
2018-08-18T06:31:23.126Z,308.00
2018-08-18T06:32:23.099Z,312.00
2018-08-18T06:33:23.080Z,312.00
2018-08-18T06:34:23.079Z,316.00
2018-08-18T06:35:23.047Z,324.00
2018-08-18T06:36:23.033Z,324.00
2018-08-18T06:37:23.013Z,328.00
2018-08-18T06:38:22.995Z,324.00
2018-08-18T06:39:22.978Z,328.00
2018-08-18T06:40:22.961Z,332.00
2018-08-18T06:41:23.011Z,336.00
2018-08-18T06:42:22.928Z,336.00
2018-08-18T06:43:22.907Z,340.00
2018-08-18T06:44:22.892Z,348.00
2018-08-18T06:45:22.873Z,348.00
2018-08-18T06:46:22.854Z,356.00
2018-08-18T06:47:22.842Z,360.00
2018-08-18T06:48:22.825Z,364.00
2018-08-18T06:49:22.802Z,372.00
2018-08-18T06:50:22.786Z,380.00
2018-08-18T06:51:22.769Z,384.00
2018-08-18T06:52:22.766Z,392.00
2018-08-18T06:53:22.735Z,396.00
2018-08-18T06:54:22.837Z,404.00
2018-08-18T06:55:22.699Z,412.00
2018-08-18T06:56:22.686Z,416.00
2018-08-18T06:57:22.664Z,420.00
2018-08-18T06:58:22.648Z,424.00
2018-08-18T06:59:22.632Z,436.00
2018-08-18T07:00:22.614Z,440.00
2018-08-18T07:01:22.604Z,444.00
2018-08-18T07:02:22.579Z,452.00
2018-08-18T07:03:22.566Z,460.00
2018-08-18T07:04:22.548Z,468.00
2018-08-18T07:05:22.530Z,480.00
2018-08-18T07:06:22.512Z,484.00
2018-08-18T07:07:22.494Z,496.00
2018-08-18T07:08:22.478Z,504.00
2018-08-18T07:09:22.464Z,516.00
2018-08-18T07:10:22.447Z,528.00
2018-08-18T07:11:22.424Z,540.00
2018-08-18T07:12:22.408Z,556.00
2018-08-18T07:13:22.388Z,564.00
2018-08-18T07:14:22.373Z,576.00
2018-08-18T07:15:22.358Z,592.00
2018-08-18T07:16:22.338Z,604.00
2018-08-18T07:17:22.325Z,624.00
2018-08-18T07:18:22.313Z,636.00
2018-08-18T07:19:22.343Z,652.00
2018-08-18T07:20:22.272Z,668.00
2018-08-18T07:21:22.252Z,684.00
2018-08-18T07:22:22.243Z,704.00
2018-08-18T07:23:22.229Z,716.00
2018-08-18T07:24:22.202Z,732.00
2018-08-18T07:25:22.190Z,744.00
2018-08-18T07:26:22.170Z,768.00
2018-08-18T07:27:22.154Z,784.00
2018-08-18T07:28:22.171Z,812.00
2018-08-18T07:29:22.122Z,840.00
2018-08-18T07:30:22.101Z,872.00
2018-08-18T07:31:22.085Z,892.00
2018-08-18T07:32:22.080Z,920.00
2018-08-18T07:33:22.052Z,940.00
2018-08-18T07:34:22.032Z,952.00
2018-08-18T07:35:22.022Z,980.00
2018-08-18T07:36:22.001Z,1000.00
2018-08-18T07:37:22.028Z,1008.00
2018-08-18T07:38:21.966Z,1052.00
2018-08-18T07:39:21.949Z,1080.00
2018-08-18T07:40:21.934Z,1112.00
2018-08-18T07:41:21.919Z,1120.00
2018-08-18T07:42:21.915Z,1136.00
2018-08-18T07:43:21.884Z,1152.00
2018-08-18T07:44:21.871Z,1168.00
2018-08-18T07:45:21.851Z,1184.00
2018-08-18T07:46:21.885Z,1192.00
2018-08-18T07:47:21.829Z,1192.00
2018-08-18T07:48:21.805Z,1204.00
2018-08-18T07:49:21.789Z,1228.00
2018-08-18T07:50:21.770Z,1248.00
2018-08-18T07:51:21.762Z,1264.00
2018-08-18T07:52:21.747Z,1284.00
2018-08-18T07:53:21.751Z,1304.00
2018-08-18T07:54:21.711Z,1312.00
2018-08-18T07:55:21.690Z,1328.00
2018-08-18T07:56:21.675Z,1328.00
2018-08-18T07:57:21.658Z,1336.00
2018-08-18T07:58:21.640Z,1368.00
2018-08-18T07:59:21.624Z,1376.00
2018-08-18T08:00:21.610Z,1408.00
2018-08-18T08:01:21.591Z,1416.00
2018-08-18T08:02:21.579Z,1436.00
2018-08-18T08:03:21.571Z,1460.00
2018-08-18T08:04:21.544Z,1476.00
2018-08-18T08:05:21.525Z,1500.00
2018-08-18T08:06:21.510Z,1496.00
2018-08-18T08:07:21.496Z,1520.00
2018-08-18T08:08:21.494Z,1528.00
2018-08-18T08:09:21.466Z,1532.00
2018-08-18T08:10:21.448Z,1556.00
2018-08-18T08:11:21.432Z,1576.00
2018-08-18T08:12:21.435Z,1584.00
2018-08-18T08:13:21.406Z,1600.00
2018-08-18T08:14:21.396Z,1620.00
2018-08-18T08:15:21.369Z,1596.00
2018-08-18T08:16:21.358Z,1624.00
2018-08-18T08:17:21.337Z,1648.00
2018-08-18T08:18:21.422Z,1676.00
2018-08-18T08:19:21.307Z,1684.00
2018-08-18T08:20:21.291Z,1688.00
2018-08-18T08:21:21.277Z,1692.00
2018-08-18T08:22:21.266Z,1680.00
2018-08-18T08:23:21.243Z,1700.00
2018-08-18T08:24:21.234Z,1720.00
2018-08-18T08:25:21.212Z,1752.00
2018-08-18T08:26:21.198Z,1776.00
2018-08-18T08:27:21.181Z,1792.00
2018-08-18T08:28:21.166Z,1808.00
2018-08-18T08:29:21.150Z,1796.00
2018-08-18T08:30:21.134Z,1760.00
2018-08-18T08:31:21.123Z,1768.00
2018-08-18T08:32:21.113Z,1744.00
2018-08-18T08:33:21.088Z,1684.00
2018-08-18T08:34:21.075Z,1672.00
2018-08-18T08:35:21.056Z,1700.00
2018-08-18T08:36:21.042Z,1708.00
2018-08-18T08:37:21.026Z,1716.00
2018-08-18T08:38:21.014Z,1716.00
2018-08-18T08:39:21.007Z,1772.00
2018-08-18T08:40:20.981Z,1816.00
2018-08-18T08:41:20.974Z,1864.00
2018-08-18T08:42:20.959Z,1916.00
2018-08-18T08:43:21.028Z,1896.00
2018-08-18T08:44:20.925Z,1908.00
2018-08-18T08:45:20.905Z,1936.00
2018-08-18T08:46:20.888Z,1928.00
2018-08-18T08:47:20.877Z,1904.00
2018-08-18T08:48:20.861Z,1908.00
2018-08-18T08:49:20.849Z,1924.00
2018-08-18T08:50:20.832Z,1892.00
2018-08-18T08:51:20.814Z,1924.00
2018-08-18T08:52:20.808Z,1948.00
2018-08-18T08:53:20.784Z,1952.00
2018-08-18T08:54:20.776Z,1944.00
2018-08-18T08:55:20.761Z,1924.00
2018-08-18T08:56:20.748Z,1924.00
2018-08-18T08:57:20.725Z,1912.00
2018-08-18T08:58:20.709Z,1860.00
2018-08-18T08:59:20.693Z,1856.00
2018-08-18T09:00:20.679Z,1792.00
2018-08-18T09:01:20.662Z,1880.00
2018-08-18T09:02:20.651Z,1876.00
2018-08-18T09:03:20.633Z,1912.00
2018-08-18T09:04:20.618Z,1932.00
2018-08-18T09:05:20.606Z,1964.00
2018-08-18T09:06:20.588Z,1972.00
2018-08-18T09:07:20.575Z,2008.00
2018-08-18T09:08:20.559Z,2012.00
2018-08-18T09:09:20.543Z,2012.00
2018-08-18T09:10:20.636Z,2028.00
2018-08-18T09:11:20.531Z,2036.00
2018-08-18T09:12:20.500Z,2036.00
2018-08-18T09:13:20.485Z,1960.00
2018-08-18T09:14:20.470Z,1972.00
2018-08-18T09:15:20.453Z,1864.00
2018-08-18T09:16:20.445Z,1868.00
2018-08-18T09:17:20.425Z,1836.00
2018-08-18T09:18:20.413Z,1844.00
2018-08-18T09:19:20.397Z,1828.00
2018-08-18T09:20:20.383Z,1872.00
2018-08-18T09:21:20.367Z,1956.00
2018-08-18T09:22:20.351Z,1984.00
2018-08-18T09:23:20.349Z,2040.00
2018-08-18T09:24:20.325Z,1940.00
2018-08-18T09:25:20.315Z,1936.00
2018-08-18T09:26:20.318Z,2036.00
2018-08-18T09:27:20.279Z,2012.00
2018-08-18T09:28:20.273Z,2000.00
2018-08-18T09:29:20.249Z,1952.00
2018-08-18T09:30:20.253Z,1992.00
2018-08-18T09:31:20.220Z,2036.00
2018-08-18T09:32:20.207Z,2092.00
2018-08-18T09:33:20.198Z,2076.00
2018-08-18T09:34:20.190Z,2060.00
2018-08-18T09:35:20.174Z,1976.00
2018-08-18T09:36:20.235Z,2032.00
2018-08-18T09:37:20.138Z,2028.00
2018-08-18T09:38:20.128Z,2004.00
2018-08-18T09:39:20.113Z,1972.00
2018-08-18T09:40:20.095Z,1972.00
2018-08-18T09:41:20.076Z,2012.00
2018-08-18T09:42:20.065Z,2092.00
2018-08-18T09:43:20.047Z,2116.00
2018-08-18T09:44:20.034Z,2132.00
2018-08-18T09:45:20.024Z,2116.00
2018-08-18T09:46:20.030Z,2100.00
2018-08-18T09:47:19.989Z,2044.00
2018-08-18T09:48:19.975Z,2020.00
2018-08-18T09:49:19.968Z,2040.00
2018-08-18T09:50:19.954Z,2008.00
2018-08-18T09:51:19.939Z,1820.00
2018-08-18T09:52:19.952Z,2128.00
2018-08-18T09:53:19.918Z,2104.00
2018-08-18T09:54:19.889Z,1912.00
2018-08-18T09:55:19.878Z,2196.00
2018-08-18T09:56:19.866Z,1972.00
2018-08-18T09:57:19.853Z,2208.00
2018-08-18T09:58:19.837Z,2296.00
2018-08-18T09:59:19.883Z,2300.00
2018-08-18T10:00:19.803Z,1908.00
2018-08-18T10:01:19.795Z,2104.00
2018-08-18T10:02:19.782Z,1108.00
2018-08-18T10:03:19.769Z,1560.00
2018-08-18T10:04:19.746Z,2108.00
2018-08-18T10:05:19.736Z,2308.00
2018-08-18T10:06:19.776Z,2384.00
2018-08-18T10:07:19.706Z,2164.00
2018-08-18T10:08:19.690Z,2320.00
2018-08-18T10:09:19.686Z,2292.00
2018-08-18T10:10:19.669Z,1248.00
2018-08-18T10:11:19.657Z,2152.00
2018-08-18T10:12:19.635Z,2288.00
2018-08-18T10:13:19.627Z,2300.00
2018-08-18T10:14:19.606Z,2316.00
2018-08-18T10:15:19.655Z,2316.00
2018-08-18T10:16:19.576Z,2404.00
2018-08-18T10:17:19.564Z,1392.00
2018-08-18T10:18:19.549Z,632.00
2018-08-18T10:19:19.547Z,592.00
2018-08-18T10:20:19.520Z,564.00
2018-08-18T10:21:19.510Z,588.00
2018-08-18T10:22:19.499Z,700.00
2018-08-18T10:23:19.492Z,2412.00
2018-08-18T10:24:19.469Z,612.00
2018-08-18T10:25:19.451Z,620.00
2018-08-18T10:26:19.433Z,2204.00
2018-08-18T10:27:19.444Z,768.00
2018-08-18T10:28:19.413Z,1352.00
2018-08-18T10:29:19.392Z,2244.00
2018-08-18T10:30:19.390Z,2276.00
2018-08-18T10:31:19.367Z,2180.00
2018-08-18T10:32:19.348Z,2320.00
2018-08-18T10:33:19.385Z,2256.00
2018-08-18T10:34:19.321Z,2252.00
2018-08-18T10:35:19.317Z,2220.00
2018-08-18T10:36:19.292Z,2156.00
2018-08-18T10:37:19.279Z,2196.00
2018-08-18T10:38:19.268Z,2148.00
2018-08-18T10:39:19.253Z,2092.00
2018-08-18T10:40:19.246Z,2160.00
2018-08-18T10:41:19.223Z,2148.00
2018-08-18T10:42:19.208Z,2140.00
2018-08-18T10:43:19.195Z,2168.00
2018-08-18T10:44:19.179Z,824.00
2018-08-18T10:45:19.164Z,2164.00
2018-08-18T10:46:19.149Z,2172.00
2018-08-18T10:47:19.141Z,2200.00
2018-08-18T10:48:19.121Z,2144.00
2018-08-18T10:49:19.114Z,2116.00
2018-08-18T10:50:19.096Z,2088.00
2018-08-18T10:51:19.077Z,2120.00
2018-08-18T10:52:19.064Z,2088.00
2018-08-18T10:53:19.053Z,2116.00
2018-08-18T10:54:19.043Z,2112.00
2018-08-18T10:55:19.028Z,2164.00
2018-08-18T10:56:19.013Z,2132.00
2018-08-18T10:57:18.996Z,2116.00
2018-08-18T10:58:18.981Z,2004.00
2018-08-18T10:59:18.967Z,2148.00
2018-08-18T11:00:18.952Z,2144.00
2018-08-18T11:01:18.942Z,2156.00
2018-08-18T11:02:18.931Z,2168.00
2018-08-18T11:03:18.913Z,2128.00
2018-08-18T11:04:18.901Z,2132.00
2018-08-18T11:05:18.883Z,2152.00
2018-08-18T11:06:18.872Z,2164.00
2018-08-18T11:07:18.871Z,2128.00
2018-08-18T11:08:18.857Z,2140.00
2018-08-18T11:09:18.829Z,1960.00
2018-08-18T11:10:18.817Z,2144.00
2018-08-18T11:11:18.802Z,2124.00
2018-08-18T11:12:18.793Z,1960.00
2018-08-18T11:13:18.773Z,2144.00
2018-08-18T11:14:18.762Z,2196.00
2018-08-18T11:15:18.747Z,2116.00
2018-08-18T11:16:18.740Z,2068.00
2018-08-18T11:17:18.719Z,2172.00
2018-08-18T11:18:18.706Z,2180.00
2018-08-18T11:19:18.697Z,2176.00
2018-08-18T11:20:18.686Z,2184.00
2018-08-18T11:21:18.677Z,2208.00
2018-08-18T11:22:18.649Z,2200.00
2018-08-18T11:23:18.638Z,2240.00
2018-08-18T11:24:18.624Z,2248.00
2018-08-18T11:25:18.609Z,2236.00
2018-08-18T11:26:18.598Z,2228.00
2018-08-18T11:27:18.583Z,2228.00
2018-08-18T11:28:18.600Z,2192.00
2018-08-18T11:29:18.556Z,2236.00
2018-08-18T11:30:18.544Z,2256.00
2018-08-18T11:31:18.538Z,2264.00
2018-08-18T11:32:18.537Z,2272.00
2018-08-18T11:33:18.504Z,2276.00
2018-08-18T11:34:18.492Z,2252.00
2018-08-18T11:35:18.478Z,2232.00
2018-08-18T11:36:18.462Z,2096.00
2018-08-18T11:37:18.457Z,2256.00
2018-08-18T11:38:18.436Z,2256.00
2018-08-18T11:39:18.422Z,2236.00
2018-08-18T11:40:18.409Z,2268.00
2018-08-18T11:41:18.406Z,2280.00
2018-08-18T11:42:18.385Z,2280.00
2018-08-18T11:43:18.373Z,2196.00
2018-08-18T11:44:18.362Z,2228.00
2018-08-18T11:45:18.344Z,2280.00
2018-08-18T11:46:18.352Z,2300.00
2018-08-18T11:47:18.317Z,2232.00
2018-08-18T11:48:18.310Z,2256.00
2018-08-18T11:49:18.289Z,2272.00
2018-08-18T11:50:18.276Z,2288.00
2018-08-18T11:51:18.269Z,2292.00
2018-08-18T11:52:18.251Z,2324.00
2018-08-18T11:53:18.237Z,2292.00
2018-08-18T11:54:18.225Z,2268.00
2018-08-18T11:55:18.212Z,2296.00
2018-08-18T11:56:18.199Z,2292.00
2018-08-18T11:57:18.182Z,2308.00
2018-08-18T11:58:18.175Z,2308.00
2018-08-18T11:59:18.167Z,2256.00
2018-08-18T12:00:18.148Z,2300.00
2018-08-18T12:01:18.138Z,2316.00
2018-08-18T12:02:18.119Z,2244.00
2018-08-18T12:03:18.108Z,2296.00
2018-08-18T12:04:18.095Z,2332.00
2018-08-18T12:05:18.081Z,2348.00
2018-08-18T12:06:18.071Z,2368.00
2018-08-18T12:07:18.053Z,2380.00
2018-08-18T12:08:18.040Z,2344.00
2018-08-18T12:09:18.030Z,2332.00
2018-08-18T12:10:18.013Z,2320.00
2018-08-18T12:11:18.003Z,2300.00
2018-08-18T12:12:17.990Z,2256.00
2018-08-18T12:13:17.974Z,2352.00
2018-08-18T12:14:17.965Z,2368.00
2018-08-18T12:15:17.948Z,2356.00
2018-08-18T12:16:17.934Z,2380.00
2018-08-18T12:17:17.924Z,2392.00
2018-08-18T12:18:17.908Z,2356.00
2018-08-18T12:19:17.899Z,2284.00
2018-08-18T12:20:17.933Z,2332.00
2018-08-18T12:21:17.876Z,2372.00
2018-08-18T12:22:17.857Z,2376.00
2018-08-18T12:23:17.847Z,2376.00
2018-08-18T12:24:17.840Z,2356.00
2018-08-18T12:25:17.819Z,2320.00
2018-08-18T12:26:17.805Z,2356.00
2018-08-18T12:27:17.794Z,2260.00
2018-08-18T12:28:17.791Z,2244.00
2018-08-18T12:29:17.778Z,2276.00
2018-08-18T12:30:17.752Z,2288.00
2018-08-18T12:31:17.740Z,2336.00
2018-08-18T12:32:17.730Z,2344.00
2018-08-18T12:33:17.713Z,2312.00
2018-08-18T12:34:17.702Z,2312.00
2018-08-18T12:35:17.698Z,2368.00
2018-08-18T12:36:17.761Z,2372.00